Time;durP1;ratioP1;P1;durP2;ratioP2;P2;SDS_P1;SDS_P2;PMS_P1;PMS_P2;Temp;Humidity;BMP_temperature;BMP_pressure;BME280_temperature;BME280_humidity;BME280_pressure;Samples;Min_cycle;Max_cycle;Signal;HPM_P1;HPM_P2
2023/04/03 00:01:59;;;;;;;2.03;1.47;;;11.60;67.40;;;11.65;49.51;94331.03;5014812;28;20473;-65
2023/04/03 00:04:26;;;;;;;5.00;1.20;;;11.50;67.30;;;11.63;49.73;94340.06;5015092;28;20516;-65
2023/04/03 00:06:54;;;;;;;1.10;1.00;;;11.50;67.80;;;11.60;49.70;94332.50;5013666;28;20477;-62
2023/04/03 00:09:21;;;;;;;2.13;1.00;;;11.50;68.70;;;11.57;49.87;94330.19;5014426;28;20584;-58
2023/04/03 00:11:49;;;;;;;2.73;1.23;;;11.50;68.10;;;11.54;49.72;94318.16;5016717;28;20473;-64
2023/04/03 00:14:16;;;;;;;1.33;1.07;;;11.40;68.30;;;11.52;49.89;94319.31;5013553;28;20449;-57
2023/04/03 00:16:45;;;;;;;1.80;1.20;;;11.40;68.50;;;11.49;50.07;94312.53;5015360;28;20468;-58
2023/04/03 00:19:12;;;;;;;1.60;1.37;;;11.40;68.60;;;11.46;49.90;94316.31;5012062;28;20576;-65
2023/04/03 00:21:40;;;;;;;1.83;0.90;;;11.40;68.70;;;11.42;50.14;94315.00;5010498;28;20893;-64
2023/04/03 00:24:07;;;;;;;1.60;1.50;;;11.30;69.00;;;11.39;50.42;94317.94;5014667;28;20453;-65
2023/04/03 00:26:35;;;;;;;3.47;1.27;;;11.30;69.40;;;11.33;50.57;94321.19;5015334;28;20473;-59
2023/04/03 00:29:02;;;;;;;4.43;1.90;;;11.20;69.70;;;11.25;50.63;94319.34;5016117;28;20499;-65
2023/04/03 00:31:29;;;;;;;4.17;2.30;;;11.20;70.60;;;11.20;50.71;94326.91;5013850;28;20477;-64
2023/04/03 00:33:59;;;;;;;11.57;5.03;;;11.10;69.90;;;11.13;50.94;94323.25;5010281;28;20522;-64
2023/04/03 00:36:26;;;;;;;14.97;6.10;;;11.10;70.40;;;11.04;50.67;94332.06;5010842;28;20500;-65
2023/04/03 00:38:54;;;;;;;11.33;5.63;;;11.00;70.30;;;10.93;51.26;94325.28;5010770;28;20811;-64
2023/04/03 00:41:22;;;;;;;10.73;4.97;;;10.90;70.60;;;10.83;51.47;94329.81;5013966;28;20912;-57
2023/04/03 00:43:49;;;;;;;11.97;4.90;;;10.80;71.30;;;10.73;51.64;94333.34;5010217;28;20501;-64
2023/04/03 00:46:16;;;;;;;11.33;5.00;;;10.70;71.40;;;10.67;51.21;94328.72;5006061;28;20491;-65
2023/04/03 00:48:45;;;;;;;8.70;4.83;;;10.60;71.30;;;10.59;51.65;94337.38;5010336;28;20489;-65
2023/04/03 00:51:15;;;;;;;7.47;4.60;;;10.60;71.30;;;10.53;51.43;94322.22;5008824;28;20487;-58
2023/04/03 00:53:45;;;;;;;8.60;4.63;;;10.50;71.60;;;10.47;51.56;94329.88;5015904;28;20541;-66
2023/04/03 00:56:14;;;;;;;8.90;4.47;;;10.40;71.90;;;10.44;52.02;94327.56;5007148;28;20481;-57
2023/04/03 00:58:45;;;;;;;8.10;4.87;;;10.40;72.90;;;10.37;52.11;94330.78;5009755;28;20879;-58
2023/04/03 01:01:16;;;;;;;6.30;4.57;;;10.30;72.80;;;10.31;52.08;94334.00;5008910;28;20552;-58
2023/04/03 01:03:43;;;;;;;5.33;3.93;;;10.30;73.10;;;10.25;52.17;94344.28;5009876;28;20870;-58
2023/04/03 01:06:10;;;;;;;3.90;3.43;;;10.20;73.70;;;10.17;52.15;94334.53;5013299;28;20561;-64
2023/04/03 01:08:39;;;;;;;8.10;4.20;;;10.20;73.50;;;10.10;52.53;94336.94;5019076;28;20500;-58
2023/04/03 01:11:07;;;;;;;8.53;3.43;;;10.10;74.00;;;10.02;52.78;94337.69;5015720;28;20477;-59
2023/04/03 01:13:35;;;;;;;3.60;2.93;;;10.00;74.30;;;9.92;52.99;94334.31;5013357;28;20473;-58
2023/04/03 01:16:04;;;;;;;9.67;3.50;;;9.90;75.90;;;9.85;52.89;94335.88;5015538;28;20535;-63
2023/04/03 01:18:31;;;;;;;3.97;3.00;;;9.80;76.50;;;9.78;53.17;94342.69;5016715;28;20854;-64
2023/04/03 01:21:33;;;;;;;4.23;2.30;;;9.80;76.70;;;9.72;53.95;94338.03;5012845;28;20473;-64
2023/04/03 01:24:17;;;;;;;4.00;2.03;;;9.70;78.00;;;9.67;54.09;94341.94;5013700;28;20831;-57
2023/04/03 01:26:44;;;;;;;2.53;1.80;;;9.60;78.60;;;9.64;53.95;94336.16;5015742;28;20993;-65
2023/04/03 01:29:12;;;;;;;2.20;2.00;;;9.60;78.80;;;9.62;54.25;94344.19;5015353;28;20896;-64
2023/04/03 01:31:52;;;;;;;1.80;1.70;;;9.60;79.90;;;9.59;54.01;94347.09;5013228;28;21744;-58
2023/04/03 01:34:19;;;;;;;1.70;1.60;;;9.60;79.70;;;9.59;53.79;94347.09;5014682;28;20453;-58
2023/04/03 01:36:47;;;;;;;3.03;2.13;;;9.50;79.70;;;9.60;53.91;94345.28;5014394;28;20488;-66
2023/04/03 01:39:14;;;;;;;3.00;2.30;;;9.50;80.10;;;9.58;54.04;94347.25;5017522;28;20532;-64
2023/04/03 01:41:42;;;;;;;3.43;2.30;;;9.50;80.40;;;9.57;54.58;94343.78;5015971;28;20484;-64
2023/04/03 01:44:09;;;;;;;3.30;2.40;;;9.50;81.80;;;9.55;54.24;94344.91;5013002;28;20476;-56
2023/04/03 01:46:37;;;;;;;2.03;1.90;;;9.50;82.00;;;9.51;54.51;94339.94;5012504;28;20547;-57
2023/04/03 01:49:06;;;;;;;1.90;1.80;;;9.50;82.20;;;9.49;54.76;94341.06;5012553;28;20493;-57
2023/04/03 01:51:34;;;;;;;2.00;1.80;;;9.50;82.50;;;9.41;54.61;94333.09;5012900;28;20474;-60
2023/04/03 01:54:01;;;;;;;2.27;2.00;;;9.40;83.10;;;9.40;54.53;94336.69;5015874;28;20858;-64
2023/04/03 01:56:29;;;;;;;2.40;1.50;;;9.40;83.00;;;9.37;54.95;94331.72;5012049;28;20914;-64
2023/04/03 01:58:56;;;;;;;1.73;1.63;;;9.30;83.40;;;9.35;55.40;94328.44;5013162;28;20467;-63
2023/04/03 02:01:25;;;;;;;3.13;1.97;;;9.30;84.40;;;9.32;55.04;94346.09;5008972;28;21377;-60
2023/04/03 02:03:52;;;;;;;1.77;1.63;;;9.30;84.50;;;9.30;55.27;94334.94;5014281;28;20462;-57
2023/04/03 02:06:21;;;;;;;2.47;2.00;;;9.30;84.80;;;9.28;54.92;94329.00;5011979;28;20614;-64
2023/04/03 02:08:49;;;;;;;2.13;1.77;;;9.30;84.80;;;9.28;55.45;94336.03;5016085;28;20497;-64
2023/04/03 02:11:16;;;;;;;2.10;1.90;;;9.20;85.40;;;9.26;55.48;94330.94;5012457;28;20980;-64
2023/04/03 02:13:44;;;;;;;2.80;1.80;;;9.20;86.30;;;9.24;56.22;94329.44;5009786;28;20453;-57
2023/04/03 02:16:12;;;;;;;3.00;1.73;;;9.20;87.30;;;9.22;55.15;94334.84;5012757;28;20482;-65
2023/04/03 02:18:42;;;;;;;2.77;1.70;;;9.20;86.30;;;9.22;55.52;94326.16;5016259;28;20446;-63
2023/04/03 02:21:09;;;;;;;2.43;2.00;;;9.20;86.60;;;9.22;55.94;94334.03;5015675;28;21042;-58
2023/04/03 02:23:38;;;;;;;2.10;1.90;;;9.10;87.70;;;9.20;55.73;94328.91;5013642;28;20469;-64
2023/04/03 02:26:07;;;;;;;4.27;2.73;;;9.20;87.40;;;9.18;55.74;94322.97;5011451;28;21394;-57
2023/04/03 02:28:35;;;;;;;3.50;2.33;;;9.10;87.70;;;9.15;54.95;94318.00;5012054;28;20520;-64
2023/04/03 02:31:02;;;;;;;2.20;2.00;;;9.10;87.40;;;9.14;55.43;94311.13;5014940;28;20478;-64
2023/04/03 02:33:29;;;;;;;3.87;2.10;;;9.10;87.70;;;9.12;55.84;94313.91;5014471;28;20464;-58
2023/04/03 02:35:57;;;;;;;3.30;2.37;;;9.10;88.30;;;9.10;55.84;94309.75;5016156;28;20476;-58
2023/04/03 02:38:24;;;;;;;4.57;2.20;;;9.10;88.60;;;9.07;55.93;94315.28;5013051;28;20461;-65
2023/04/03 02:40:53;;;;;;;6.23;3.10;;;9.10;88.80;;;9.03;55.72;94308.66;5016431;28;20485;-65
2023/04/03 02:43:20;;;;;;;5.47;2.47;;;9.00;89.50;;;9.00;56.07;94312.44;5013421;28;20487;-64
2023/04/03 02:45:48;;;;;;;9.10;2.67;;;9.00;89.40;;;8.96;56.69;94313.69;5013989;28;20492;-65
2023/04/03 02:48:16;;;;;;;4.57;3.00;;;9.00;90.30;;;8.91;56.19;94314.09;5011558;28;20965;-57
2023/04/03 02:50:43;;;;;;;4.70;3.00;;;8.90;90.20;;;8.89;56.78;94309.97;5012634;28;20802;-56
2023/04/03 02:53:11;;;;;;;5.10;2.47;;;8.90;90.40;;;8.86;56.69;94310.25;5016013;28;20521;-63
2023/04/03 02:55:38;;;;;;;2.87;2.20;;;8.90;90.50;;;8.82;56.56;94312.34;5012889;28;20477;-57
2023/04/03 02:58:07;;;;;;;4.23;2.40;;;8.80;90.70;;;8.78;56.46;94309.19;5013825;28;21233;-57
2023/04/03 03:00:34;;;;;;;5.90;2.80;;;8.80;90.90;;;8.76;56.32;94303.25;5013038;28;20476;-57
2023/04/03 03:03:01;;;;;;;9.23;3.40;;;8.80;90.90;;;8.76;56.53;94294.56;5017694;28;20465;-57
2023/04/03 03:05:30;;;;;;;8.30;3.00;;;8.80;91.00;;;8.75;57.15;94299.00;5012998;28;20472;-64
2023/04/03 03:07:57;;;;;;;6.07;3.60;;;8.80;91.20;;;8.74;56.98;94294.69;5010673;28;20466;-58
2023/04/03 03:10:24;;;;;;;5.10;3.33;;;8.70;91.30;;;8.72;56.69;94298.44;5012067;28;21093;-63
2023/04/03 03:12:52;;;;;;;3.10;2.83;;;8.70;91.20;;;8.68;56.72;94303.13;5011492;28;20467;-58
2023/04/03 03:15:20;;;;;;;4.47;2.77;;;8.70;91.30;;;8.66;56.47;94296.38;5014293;28;20476;-56
2023/04/03 03:17:48;;;;;;;7.00;3.20;;;8.70;91.40;;;8.66;56.97;94296.38;5018285;28;20467;-57
2023/04/03 03:20:15;;;;;;;5.10;3.03;;;8.70;91.70;;;8.65;56.94;94294.75;5014429;28;21285;-58
2023/04/03 03:22:43;;;;;;;3.17;2.90;;;8.60;91.50;;;8.66;56.45;94299.00;5007893;28;20458;-58
2023/04/03 03:25:10;;;;;;;3.97;3.07;;;8.60;91.50;;;8.65;56.47;94302.59;5009063;28;20470;-64
2023/04/03 03:27:38;;;;;;;3.90;3.60;;;8.60;91.60;;;8.62;57.12;94295.84;5007565;28;20466;-58
2023/04/03 03:30:07;;;;;;;4.20;3.03;;;8.60;92.00;;;8.63;56.83;94304.53;5008118;28;20792;-59
2023/04/03 03:32:36;;;;;;;7.50;3.60;;;8.60;92.00;;;8.63;56.56;94310.63;5007842;28;21337;-64
2023/04/03 03:35:04;;;;;;;19.60;4.67;;;8.60;92.00;;;8.63;57.57;94313.22;5007003;28;20473;-65
2023/04/03 03:37:31;;;;;;;10.00;5.20;;;8.60;92.20;;;8.64;57.15;94306.19;5009127;28;20446;-64
2023/04/03 03:39:59;;;;;;;5.93;4.20;;;8.60;92.20;;;8.64;57.05;94306.19;5013076;28;20536;-65
2023/04/03 03:42:26;;;;;;;6.90;3.80;;;8.60;92.20;;;8.65;57.40;94298.19;5016001;28;20471;-58
2023/04/03 03:44:53;;;;;;;9.10;3.80;;;8.60;92.40;;;8.65;57.77;94311.28;5008532;28;20468;-65
2023/04/03 03:47:21;;;;;;;7.67;5.20;;;8.60;93.00;;;8.59;57.96;94302.19;5010052;28;20454;-65
2023/04/03 03:49:49;;;;;;;7.80;4.57;;;8.60;93.00;;;8.61;58.24;94309.91;5012765;28;21147;-56
2023/04/03 03:52:17;;;;;;;4.97;4.33;;;8.60;93.20;;;8.58;58.11;94304.94;5012882;28;21009;-57
2023/04/03 03:54:44;;;;;;;5.83;4.53;;;8.60;93.10;;;8.57;57.97;94305.94;5014933;28;20942;-58
2023/04/03 03:57:11;;;;;;;6.10;3.73;;;8.60;93.00;;;8.57;57.11;94314.63;5017355;28;20480;-58
2023/04/03 03:59:41;;;;;;;5.80;3.80;;;8.60;92.90;;;8.60;57.49;94314.34;5012488;28;20463;-57
2023/04/03 04:02:09;;;;;;;9.30;4.87;;;8.60;92.80;;;8.60;57.39;94311.72;5007081;28;20497;-57
2023/04/03 04:04:37;;;;;;;5.57;4.10;;;8.60;93.20;;;8.61;57.29;94315.16;5013394;28;20537;-58
2023/04/03 04:07:06;;;;;;;8.27;5.33;;;8.60;93.00;;;8.61;57.08;94310.75;5015450;28;20480;-58
2023/04/03 04:09:33;;;;;;;7.83;4.57;;;8.60;93.00;;;8.59;57.49;94302.19;5008333;28;20497;-57
2023/04/03 04:12:00;;;;;;;7.13;4.00;;;8.60;92.90;;;8.59;57.64;94301.38;5013758;28;20481;-64
2023/04/03 04:14:28;;;;;;;11.60;4.50;;;8.60;92.70;;;8.58;57.21;94308.41;5012759;28;20450;-65
2023/04/03 04:16:55;;;;;;;4.83;4.27;;;8.60;92.60;;;8.58;56.95;94311.03;5015944;28;20560;-65
2023/04/03 04:19:22;;;;;;;4.20;3.83;;;8.50;92.60;;;8.59;57.36;94317.91;5012837;28;20563;-66
2023/04/03 04:21:50;;;;;;;14.47;4.20;;;8.60;93.00;;;8.59;57.37;94320.53;5011634;28;20496;-56
2023/04/03 04:24:19;;;;;;;6.80;4.10;;;8.60;92.90;;;8.58;57.74;94332.00;5010566;28;20465;-58
2023/04/03 04:26:46;;;;;;;13.63;5.37;;;8.60;93.00;;;8.55;56.98;94331.44;5012868;28;20473;-57
2023/04/03 04:29:13;;;;;;;7.70;4.57;;;8.50;92.90;;;8.54;57.39;94335.88;5009756;28;20511;-59
2023/04/03 04:31:41;;;;;;;12.67;4.60;;;8.50;93.00;;;8.52;57.86;94332.56;5012549;28;20568;-64
2023/04/03 04:34:09;;;;;;;11.70;5.80;;;8.50;93.20;;;8.50;57.66;94321.38;5009067;28;20460;-57
2023/04/03 04:36:36;;;;;;;8.67;5.47;;;8.50;93.30;;;8.49;57.51;94327.59;5011891;28;20481;-57
2023/04/03 04:39:05;;;;;;;12.20;6.93;;;8.50;93.20;;;8.47;57.92;94334.75;5014325;28;20487;-58
2023/04/03 04:41:34;;;;;;;25.87;11.30;;;8.50;93.30;;;8.48;57.81;94340.84;5014236;28;20470;-57
2023/04/03 04:44:01;;;;;;;12.10;7.17;;;8.50;93.70;;;8.46;57.99;94346.22;5014117;28;21016;-63
2023/04/03 04:46:29;;;;;;;14.33;5.60;;;8.50;94.00;;;8.46;58.03;94337.53;5012231;28;21053;-58
2023/04/03 04:48:56;;;;;;;18.77;6.00;;;8.40;93.90;;;8.46;58.25;94338.38;5011809;28;20460;-56
2023/04/03 04:51:23;;;;;;;20.33;6.40;;;8.40;93.80;;;8.46;58.65;94341.00;5008086;28;20473;-58
2023/04/03 04:53:51;;;;;;;13.33;5.63;;;8.40;94.30;;;8.46;58.47;94348.84;5013805;28;20791;-66
2023/04/03 04:56:18;;;;;;;16.97;6.87;;;8.40;94.10;;;8.47;57.89;94355.72;5019733;28;20484;-66
2023/04/03 04:58:47;;;;;;;18.23;6.10;;;8.40;94.00;;;8.47;58.15;94355.72;5017043;28;20900;-57
2023/04/03 05:01:14;;;;;;;14.27;6.73;;;8.40;94.00;;;8.47;58.43;94352.28;5012678;28;20473;-58
2023/04/03 05:03:42;;;;;;;18.10;6.90;;;8.50;94.30;;;8.48;58.59;94357.38;5011524;28;21143;-66
2023/04/03 05:06:09;;;;;;;10.83;6.17;;;8.50;94.40;;;8.49;58.09;94366.06;5011802;28;20993;-57
2023/04/03 05:08:37;;;;;;;19.93;4.93;;;8.50;94.10;;;8.50;58.66;94363.31;5019352;28;20467;-65
2023/04/03 05:11:04;;;;;;;24.83;5.07;;;8.50;94.30;;;8.48;58.52;94361.81;5016634;28;20497;-58
2023/04/03 05:13:31;;;;;;;9.73;4.23;;;8.40;94.60;;;8.43;58.28;94370.91;5022233;28;20457;-65
2023/04/03 05:16:00;;;;;;;6.23;4.97;;;8.40;94.30;;;8.42;58.08;94373.63;5019728;28;20489;-58
2023/04/03 05:18:28;;;;;;;15.73;6.30;;;8.40;94.30;;;8.43;58.19;94370.06;5016180;28;20965;-58
2023/04/03 05:20:55;;;;;;;18.37;5.57;;;8.40;94.30;;;8.46;58.23;94377.69;5016072;28;21234;-55
2023/04/03 05:23:22;;;;;;;16.20;5.97;;;8.40;94.30;;;8.50;58.23;94373.78;5023138;28;20449;-64
2023/04/03 05:25:50;;;;;;;21.73;9.87;;;8.50;94.40;;;8.55;58.36;94374.22;5015079;28;20478;-58
2023/04/03 05:28:17;;;;;;;22.53;9.50;;;8.50;94.40;;;8.59;58.39;94378.19;5017115;28;20457;-68
2023/04/03 05:30:44;;;;;;;43.80;10.90;;;8.50;94.30;;;8.65;58.17;94381.25;5018409;28;20510;-65
2023/04/03 05:33:14;;;;;;;26.83;9.17;;;8.60;94.40;;;8.66;58.45;94381.09;5016913;28;20463;-65
2023/04/03 05:35:43;;;;;;;19.33;9.33;;;8.70;94.40;;;8.71;57.58;94381.50;5015752;28;20557;-58
2023/04/03 05:38:11;;;;;;;17.43;8.90;;;8.70;94.40;;;8.77;57.59;94383.56;5014841;28;20536;-57
2023/04/03 05:40:38;;;;;;;20.17;10.03;;;8.70;94.10;;;8.82;57.79;94380.53;5018216;28;20552;-57
2023/04/03 05:43:05;;;;;;;20.83;8.80;;;8.80;94.20;;;8.86;57.95;94379.28;5018590;28;20468;-57
2023/04/03 05:45:33;;;;;;;35.53;9.50;;;8.80;94.10;;;8.91;57.96;94374.44;5013822;28;20543;-57
2023/04/03 05:48:00;;;;;;;15.87;7.60;;;8.90;94.10;;;8.95;57.61;94378.44;5015768;28;20507;-57
2023/04/03 05:50:30;;;;;;;12.43;6.23;;;8.90;94.10;;;9.00;58.03;94378.00;5017107;28;21103;-65
2023/04/03 05:52:58;;;;;;;23.03;6.60;;;8.90;94.10;;;9.06;57.75;94379.22;5016181;28;20457;-58
2023/04/03 05:55:26;;;;;;;16.70;5.70;;;9.00;94.00;;;9.10;57.72;94367.47;5016190;28;20552;-66
2023/04/03 05:57:53;;;;;;;15.97;4.80;;;9.10;93.90;;;9.17;57.45;94370.34;5017573;28;20553;-56
2023/04/03 06:00:21;;;;;;;5.03;4.03;;;9.10;93.80;;;9.23;57.56;94375.00;5015082;28;20469;-57
2023/04/03 06:02:48;;;;;;;9.23;4.40;;;9.20;93.80;;;9.27;57.18;94366.72;5016678;28;20449;-58
2023/04/03 06:05:15;;;;;;;12.00;3.97;;;9.20;93.70;;;9.34;57.17;94359.06;5018576;28;21514;-58
2023/04/03 06:07:44;;;;;;;11.40;3.90;;;9.30;93.80;;;9.41;58.20;94361.97;5012586;28;20453;-57
2023/04/03 06:10:13;;;;;;;7.20;3.20;;;9.30;94.60;;;9.52;58.37;94367.03;5013549;28;20550;-56
2023/04/03 06:12:41;;;;;;;12.93;4.20;;;9.40;94.80;;;9.63;58.44;94358.13;5012309;28;20453;-59
2023/04/03 06:15:10;;;;;;;15.23;4.30;;;9.50;95.40;;;9.76;59.48;94342.84;5014598;28;20872;-57
2023/04/03 06:17:37;;;;;;;9.90;5.20;;;9.70;96.20;;;9.87;58.65;94345.25;5015964;28;20993;-58
2023/04/03 06:20:06;;;;;;;11.60;5.20;;;9.70;95.50;;;9.99;58.04;94330.13;5012835;28;20551;-66
2023/04/03 06:22:33;;;;;;;11.30;4.97;;;9.90;95.00;;;10.11;58.08;94329.88;5010550;28;20936;-65
2023/04/03 06:25:02;;;;;;;15.10;5.90;;;10.00;94.50;;;10.17;57.14;94329.28;5013494;28;20969;-66
2023/04/03 06:27:29;;;;;;;12.23;6.93;;;10.10;93.70;;;10.21;56.73;94335.91;5013604;28;20461;-66
2023/04/03 06:29:56;;;;;;;13.50;6.50;;;10.10;92.80;;;10.19;56.42;94345.72;5020287;28;20994;-58
2023/04/03 06:32:24;;;;;;;10.23;6.60;;;10.10;92.70;;;10.19;56.65;94348.34;5011661;28;20512;-57
2023/04/03 06:34:53;;;;;;;10.37;7.10;;;10.10;92.80;;;10.25;57.56;94345.13;5014511;28;21603;-58
2023/04/03 06:37:22;;;;;;;13.03;7.10;;;10.20;93.70;;;10.33;57.18;94342.59;5019022;28;20448;-57
2023/04/03 06:39:49;;;;;;;14.40;7.33;;;10.20;93.60;;;10.43;57.41;94344.31;5013438;28;20461;-57
2023/04/03 06:42:18;;;;;;;11.13;7.07;;;10.30;93.60;;;10.52;56.80;94348.69;5014402;28;20481;-65
2023/04/03 06:44:46;;;;;;;33.70;7.53;;;10.40;93.20;;;10.59;56.79;94357.59;5014634;28;20459;-66
2023/04/03 06:47:13;;;;;;;20.57;8.40;;;10.50;93.20;;;10.66;56.84;94366.53;5012659;28;20465;-57
2023/04/03 06:49:41;;;;;;;15.70;7.20;;;10.50;93.20;;;10.73;56.31;94367.53;5014080;28;20548;-57
2023/04/03 06:52:08;;;;;;;16.10;9.03;;;10.60;93.00;;;10.80;56.54;94359.03;5013043;28;20474;-57
2023/04/03 06:54:35;;;;;;;13.00;7.83;;;10.70;93.00;;;10.88;55.90;94353.84;5017322;28;21030;-59
2023/04/03 06:57:03;;;;;;;19.80;7.60;;;10.80;92.60;;;10.90;56.04;94351.88;5013741;28;20473;-56
2023/04/03 06:59:31;;;;;;;25.50;7.60;;;10.80;92.60;;;10.98;55.70;94356.38;5016526;28;20468;-65
2023/04/03 07:01:59;;;;;;;20.70;8.13;;;10.80;92.40;;;11.00;55.47;94363.16;5013496;28;20870;-57
2023/04/03 07:04:27;;;;;;;16.33;7.03;;;10.90;92.00;;;11.05;55.46;94360.88;5014074;28;20495;-58
2023/04/03 07:06:54;;;;;;;17.60;7.80;;;10.90;91.90;;;11.06;55.55;94365.16;5014996;28;20507;-66
2023/04/03 07:09:21;;;;;;;13.80;6.27;;;11.00;92.00;;;11.05;55.19;94366.13;5013244;28;20460;-65
2023/04/03 07:11:49;;;;;;;12.33;6.00;;;11.00;91.60;;;11.02;55.19;94366.44;5015528;28;20496;-58
2023/04/03 07:14:16;;;;;;;8.97;6.13;;;10.90;91.60;;;11.04;55.00;94372.38;5016012;28;20448;-65
2023/04/03 07:16:45;;;;;;;7.53;5.37;;;10.90;91.60;;;11.06;54.93;94357.25;5015834;28;20893;-58
2023/04/03 07:19:12;;;;;;;7.87;4.77;;;11.00;91.40;;;11.08;55.11;94349.22;5014230;28;20504;-65
2023/04/03 07:21:41;;;;;;;7.17;5.20;;;11.00;91.50;;;11.10;55.23;94345.44;5012728;28;20473;-57
2023/04/03 07:24:08;;;;;;;8.47;5.87;;;11.00;91.50;;;11.18;55.46;94354.34;5013491;28;21029;-65
2023/04/03 07:26:36;;;;;;;18.33;6.20;;;11.10;91.70;;;11.25;54.94;94335.16;5020735;28;20469;-66
2023/04/03 07:29:03;;;;;;;16.23;5.20;;;11.10;91.60;;;11.38;55.18;94347.06;5016052;28;20510;-65
2023/04/03 07:31:31;;;;;;;12.33;5.10;;;11.20;91.50;;;11.50;54.64;94344.97;5011662;28;21514;-64
2023/04/03 07:33:59;;;;;;;22.50;5.17;;;11.30;91.20;;;11.61;54.65;94334.16;5014069;28;20540;-57
2023/04/03 07:36:27;;;;;;;10.20;5.30;;;11.50;91.20;;;11.77;54.59;94328.94;5019376;28;20478;-58
2023/04/03 07:38:54;;;;;;;14.30;4.80;;;11.60;91.10;;;11.98;54.34;94325.06;5012086;28;20458;-57
2023/04/03 07:41:22;;;;;;;6.20;4.67;;;11.80;90.90;;;12.18;53.73;94326.41;5011810;28;20484;-65
2023/04/03 07:43:50;;;;;;;9.70;3.80;;;12.00;90.60;;;12.41;53.15;94320.50;5015677;28;20571;-58
2023/04/03 07:46:18;;;;;;;9.80;4.37;;;12.20;90.10;;;12.61;52.55;94321.00;5012838;28;20464;-66
2023/04/03 07:48:46;;;;;;;10.53;4.00;;;12.50;88.90;;;12.80;52.48;94319.81;5014053;28;20516;-66
2023/04/03 07:51:14;;;;;;;20.53;4.67;;;12.60;88.30;;;13.00;52.15;94309.72;5011937;28;20630;-56
2023/04/03 07:53:42;;;;;;;5.80;3.70;;;12.80;87.60;;;13.15;51.84;94296.66;5012908;28;20461;-67
2023/04/03 07:56:09;;;;;;;13.13;3.50;;;13.00;86.80;;;13.26;51.48;94306.00;5017498;28;20481;-66
2023/04/03 07:58:36;;;;;;;9.30;5.23;;;13.10;85.60;;;13.38;51.11;94317.88;5011927;28;21410;-59
2023/04/03 08:01:04;;;;;;;13.53;5.87;;;13.20;85.10;;;13.49;51.19;94307.94;5014834;28;20505;-58
2023/04/03 08:03:32;;;;;;;25.33;4.63;;;13.40;84.50;;;13.57;51.12;94307.88;5015078;28;20456;-67
2023/04/03 08:06:03;;;;;;;6.70;4.60;;;13.40;84.00;;;13.64;50.28;94300.94;5016522;28;20476;-58
2023/04/03 08:08:32;;;;;;;12.23;5.00;;;13.50;82.50;;;13.66;50.20;94303.41;5016313;28;20511;-57
2023/04/03 08:11:01;;;;;;;11.80;5.07;;;13.50;81.90;;;13.66;50.16;94287.53;5011527;28;20506;-56
2023/04/03 08:13:29;;;;;;;11.30;6.13;;;13.50;82.00;;;13.63;50.09;94286.91;5021445;28;20484;-58
2023/04/03 08:15:57;;;;;;;12.50;7.43;;;13.50;81.50;;;13.63;50.36;94297.47;5017024;28;20476;-66
2023/04/03 08:18:25;;;;;;;22.73;6.50;;;13.50;81.50;;;13.66;50.59;94298.13;5017610;28;20452;-64
2023/04/03 08:20:52;;;;;;;13.17;6.30;;;13.50;81.60;;;13.66;50.53;94298.13;5017812;28;20477;-58
2023/04/03 08:23:20;;;;;;;13.20;5.50;;;13.50;82.00;;;13.66;50.36;94292.81;5019852;28;20571;-59
2023/04/03 08:25:49;;;;;;;9.20;4.83;;;13.50;81.80;;;13.66;50.16;94295.47;5018757;28;20843;-58
2023/04/03 08:28:17;;;;;;;14.37;6.30;;;13.50;81.00;;;13.69;50.03;94290.66;5017834;28;20507;-66
2023/04/03 08:30:44;;;;;;;12.90;7.30;;;13.50;80.70;;;13.75;50.12;94291.78;5016769;28;21351;-58
2023/04/03 08:33:11;;;;;;;13.40;6.20;;;13.60;80.90;;;13.84;50.45;94282.81;5019443;28;20547;-59
2023/04/03 08:35:42;;;;;;;16.47;7.00;;;13.70;81.40;;;13.94;50.26;94286.06;5021406;28;20473;-65
2023/04/03 08:38:09;;;;;;;10.90;6.47;;;13.80;81.20;;;14.00;49.88;94276.59;5019485;28;20449;-58
2023/04/03 08:40:37;;;;;;;21.10;6.20;;;13.90;80.40;;;14.05;49.74;94270.78;5017153;28;20485;-59
2023/04/03 08:43:28;;;;;;;11.73;7.67;;;13.90;80.00;;;14.07;49.46;94274.09;5019309;28;20452;-66
2023/04/03 08:45:56;;;;;;;16.13;8.47;;;13.90;79.50;;;14.06;49.32;94270.59;5015709;28;20555;-58
2023/04/03 08:48:26;;;;;;;15.60;7.47;;;13.90;79.20;;;14.09;49.52;94272.09;5017835;28;20456;-66
2023/04/03 08:50:57;;;;;;;15.30;8.80;;;13.90;79.10;;;14.10;49.51;94268.44;5015219;28;20496;-58
2023/04/03 08:53:27;;;;;;;13.10;7.83;;;13.90;78.80;;;14.08;49.21;94259.84;5014904;28;20457;-58
2023/04/03 08:55:54;;;;;;;11.70;8.17;;;13.90;78.50;;;14.10;49.38;94263.16;5015108;28;20471;-64
2023/04/03 08:58:24;;;;;;;23.97;8.60;;;13.90;78.40;;;14.13;49.03;94268.09;5015351;28;20461;-66
2023/04/03 09:00:55;;;;;;;20.63;9.20;;;13.90;77.80;;;14.09;48.83;94251.75;5020227;28;20581;-58
2023/04/03 09:03:22;;;;;;;22.63;8.60;;;13.90;77.10;;;14.07;48.94;94251.09;5017049;28;20846;-58
2023/04/03 09:05:53;;;;;;;14.00;10.27;;;13.90;77.70;;;14.07;49.17;94242.38;5013875;28;20678;-66
2023/04/03 09:08:25;;;;;;;17.30;11.20;;;13.90;77.60;;;14.08;48.86;94241.34;5014525;28;20473;-66
2023/04/03 09:11:01;;;;;;;16.40;9.90;;;13.90;77.20;;;14.07;49.03;94243.16;5012444;28;20504;-66
2023/04/03 09:13:34;;;;;;;26.43;10.23;;;13.90;77.20;;;14.07;49.16;94237.06;5012126;28;20453;-59
2023/04/03 09:16:01;;;;;;;15.90;8.27;;;13.90;77.50;;;14.11;49.22;94233.91;5012315;28;20532;-59
2023/04/03 09:18:32;;;;;;;23.17;9.47;;;14.00;78.20;;;14.20;49.11;94237.28;5014889;28;20453;-58
2023/04/03 09:21:03;;;;;;;25.27;9.33;;;14.00;78.00;;;14.21;48.64;94238.94;5016842;28;20565;-56
2023/04/03 09:23:35;;;;;;;16.23;8.40;;;14.00;76.90;;;14.19;48.40;94229.53;5013347;28;20444;-67
2023/04/03 09:26:04;;;;;;;18.70;8.33;;;14.00;76.30;;;14.19;48.73;94229.53;5017032;28;20563;-65
2023/04/03 09:28:36;;;;;;;20.50;9.37;;;14.00;76.40;;;14.22;48.51;94224.72;5014784;28;20926;-59
2023/04/03 09:31:07;;;;;;;31.97;10.70;;;14.00;76.60;;;14.24;48.13;94220.06;5016939;28;20496;-59
2023/04/03 09:33:35;;;;;;;26.80;10.67;;;14.00;76.10;;;14.27;48.53;94221.53;5016749;28;20500;-65
2023/04/03 09:36:02;;;;;;;25.83;10.17;;;14.10;75.90;;;14.31;48.17;94213.06;5012633;28;20477;-58
2023/04/03 09:38:29;;;;;;;16.27;9.53;;;14.10;75.60;;;14.33;48.25;94219.00;5018231;28;20452;-57
2023/04/03 09:41:06;;;;;;;12.23;8.70;;;14.10;75.40;;;14.37;48.21;94214.16;5018575;28;20476;-58
2023/04/03 09:43:35;;;;;;;25.60;9.70;;;14.20;75.30;;;14.44;48.35;94214.28;5017646;28;20997;-56
2023/04/03 09:46:26;;;;;;;12.27;7.80;;;14.20;75.70;;;14.48;47.87;94212.91;5017459;28;20941;-66
2023/04/03 09:48:56;;;;;;;18.03;9.10;;;14.30;75.20;;;14.54;48.25;94201.59;5018394;28;20515;-66
2023/04/03 09:51:27;;;;;;;14.40;8.97;;;14.30;76.70;;;14.63;47.77;94197.91;5017045;28;20547;-58
2023/04/03 09:53:55;;;;;;;24.80;8.30;;;14.40;75.20;;;14.72;48.25;94192.50;5016381;28;20462;-65
2023/04/03 09:56:26;;;;;;;19.83;9.80;;;14.50;75.50;;;14.79;47.64;94198.72;5017109;28;21312;-56
2023/04/03 09:59:14;;;;;;;15.10;9.40;;;14.50;74.40;;;14.85;47.51;94187.41;5017897;28;20896;-58
2023/04/03 10:01:44;;;;;;;20.80;10.70;;;14.60;74.10;;;14.88;47.54;94187.03;5013802;28;20481;-57
2023/04/03 10:04:13;;;;;;;18.77;9.43;;;14.70;74.20;;;14.85;47.74;94188.22;5015502;28;20563;-67
2023/04/03 10:06:46;;;;;;;16.40;10.10;;;14.60;74.00;;;14.84;48.12;94181.31;5014540;28;20478;-58
2023/04/03 10:09:21;;;;;;;14.90;9.30;;;14.60;74.50;;;14.86;48.23;94181.94;5019019;28;20450;-66
2023/04/03 10:12:05;;;;;;;19.30;8.73;;;14.60;75.20;;;14.94;48.33;94182.84;5023332;28;20530;-67
2023/04/03 10:14:34;;;;;;;16.80;11.00;;;14.70;75.60;;;14.97;48.01;94175.34;5016600;28;20993;-66
2023/04/03 10:17:12;;;;;;;29.83;14.23;;;14.70;74.90;;;14.97;47.67;94180.66;5016454;28;20488;-66
2023/04/03 10:19:42;;;;;;;32.13;11.57;;;14.80;74.10;;;15.00;47.78;94171.53;5014334;28;20646;-66
2023/04/03 10:22:20;;;;;;;14.93;8.73;;;14.80;74.30;;;15.00;47.58;94171.53;5014474;28;20477;-57
2023/04/03 10:24:54;;;;;;;15.83;8.40;;;14.80;73.90;;;14.97;47.52;94175.34;5021164;28;21139;-65
2023/04/03 10:27:30;;;;;;;17.43;8.73;;;14.70;73.30;;;14.93;47.34;94163.47;5019588;28;20446;-58
2023/04/03 10:30:03;;;;;;;14.83;9.90;;;14.80;72.90;;;14.91;47.43;94162.03;5013119;28;20449;-58